• Join FlightAware (Why Join?)
  • Login
  • US Flag 
05:28AM EDT


 

Airport Tracker/Info


-or-


 

Live Flight TrackerFlight Track Log ✈ SKW5649 ✈ 23-Apr-2013 ✈ KFAR - KDEN

Flight Track Log - Related Links

Times and Time Zones

All times are in EDT time to prevent confusion due to time zone crossing. See the SKW5649 flight status page for this flight to view local times or setup timezone preferences in your user account.

Time Position Orientation Groundspeed Altitude Reporting Facility
EDT Latitude Longitude Course Direction KTS MPH feet Rate Location/Type
06:22PM 46.8800 -96.8422 215° Southwest 173 199 2,800  Level Minneapolis Center
06:23PM 46.8392 -96.9144 230° Southwest 230 265 5,400 2,700 Climbing Minneapolis Center
06:24PM 46.6664 -97.0671 215° Southwest  Level FlightAware Approximate
06:24PM 46.7617 -96.9975 216° Southwest 270 311 9,000  Level Minneapolis Center
06:25PM 46.5811 -97.1525 218° Southwest  Level FlightAware Approximate
06:25PM 46.7164 -97.0872 234° Southwest 280 322 10,000  Level Minneapolis Center
06:26PM 46.4993 -97.2446 218° Southwest  Level FlightAware Approximate
06:26PM 46.6622 -97.1992 235° Southwest 320 368 12,000  Level Minneapolis Center
06:27PM 46.4162 -97.3340 215° Southwest  Level FlightAware Approximate
06:28PM 46.6183 -97.2942 236° Southwest 320 368 14,400  Level Minneapolis Center
06:29PM 46.5358 -97.3981 221° Southwest 327 376 17,100 2,040 Climbing Minneapolis Center
06:30PM 46.4711 -97.4736 219° Southwest 331 381 18,700 1,500 Climbing Minneapolis Center
06:31PM 46.3975 -97.5567 218° Southwest 336 387 20,300 1,560 Climbing Minneapolis Center
06:32PM 46.3064 -97.6617 219° Southwest 348 400 22,000 1,380 Climbing Minneapolis Center
06:33PM 46.2297 -97.7492 218° Southwest 350 403 23,200 1,080 Climbing Minneapolis Center
06:34PM 46.1506 -97.8378 218° Southwest 357 411 24,300 960 Climbing Minneapolis Center
06:35PM 46.0700 -97.9278 218° Southwest 365 420 25,300 780 Climbing Minneapolis Center
06:36PM 45.9892 -98.0203 219° Southwest 369 425 26,200 780 Climbing Minneapolis Center
06:37PM 45.8867 -98.1364 218° Southwest 374 430 27,200 720 Climbing Minneapolis Center
06:38PM 45.8039 -98.2294 218° Southwest 378 435 27,800 780 Climbing Minneapolis Center
06:39PM 45.7031 -98.3414 218° Southwest 381 438 28,900 720 Climbing Minneapolis Center
06:40PM 45.6189 -98.4331 217° Southwest 382 440 29,300 540 Climbing Minneapolis Center
06:41PM 45.5350 -98.5278 218° Southwest 382 440 30,100 600 Climbing Minneapolis Center
06:42PM 45.4667 -98.6028 218° Southwest 385 443 30,600 660 Climbing Minneapolis Center
06:43PM 45.3678 -98.7119 218° Southwest 379 436 31,500 660 Climbing Minneapolis Center
06:44PM 45.2856 -98.8017 218° Southwest 374 430 32,000 240 Climbing Minneapolis Center
06:45PM 45.2028 -98.8914 217° Southwest 373 429 32,000  Level Minneapolis Center
06:46PM 45.0992 -99.0044 218° Southwest 384 442 32,000  Level Minneapolis Center
06:47PM 45.0111 -99.0986 217° Southwest 391 450 32,000  Level Minneapolis Center
06:48PM 44.9247 -99.1911 217° Southwest 390 449 32,000  Level Minneapolis Center
06:49PM 44.8381 -99.2842 217° Southwest 390 449 32,000  Level Minneapolis Center
06:50PM 44.7517 -99.3758 217° Southwest 388 447 32,000  Level Minneapolis Center
06:52PM 44.6653 -99.4678 217° Southwest 388 447 32,000  Level Minneapolis Center
06:53PM 44.5783 -99.5586 217° Southwest 388 447 32,000  Level Minneapolis Center
06:54PM 44.4731 -99.6700 217° Southwest 391 450 32,000  Level Minneapolis Center
06:55PM 44.3850 -99.7619 217° Southwest 393 452 32,000  Level Minneapolis Center
06:56PM 44.2961 -99.8556 217° Southwest 397 457 32,000  Level Minneapolis Center
06:57PM 44.2069 -99.9489 217° Southwest 399 459 32,000  Level Minneapolis Center
06:58PM 44.1175 -100.0411 217° Southwest 399 459 32,000  Level Minneapolis Center
06:59PM 44.0278 -100.1322 216° Southwest 398 458 32,000  Level Minneapolis Center
07:00PM 43.9383 -100.2253 217° Southwest 401 461 32,000  Level Minneapolis Center
07:01PM 43.8314 -100.3356 217° Southwest 399 459 32,000  Level Minneapolis Center
07:02PM 43.7408 -100.4256 216° Southwest 400 460 32,000  Level Minneapolis Center
07:03PM 43.6506 -100.5178 216° Southwest 402 463 32,000  Level Minneapolis Center
07:04PM 43.5600 -100.6106 217° Southwest 404 465 32,000  Level Minneapolis Center
07:05PM 43.4697 -100.7017 216° Southwest 403 464 32,000  Level Minneapolis Center
07:06PM 43.3797 -100.7931 216° Southwest 403 464 32,000  Level Minneapolis Center
07:07PM 43.2708 -100.9017 216° Southwest 403 464 32,000  Level Minneapolis Center
07:08PM 43.1986 -100.9744 216° Southwest 402 463 32,000  Level Minneapolis Center
07:09PM 43.0889 -101.0828 216° Southwest 404 465 32,000  Level Minneapolis Center
07:10PM 42.9978 -101.1731 216° Southwest 405 466 32,000  Level Minneapolis Center
07:11PM 42.9064 -101.2622 216° Southwest 404 465 32,000  Level Minneapolis Center
07:12PM 42.8156 -101.3506 216° Southwest 402 463 32,000  Level Minneapolis Center
07:13PM 42.7069 -101.4575 216° Southwest 402 463 32,000  Level Minneapolis Center
07:14PM 42.6067 -101.5575 216° Southwest 404 465 32,000  Level Denver Center
07:15PM 42.5028 -101.6572 215° Southwest 408 470 32,000  Level Denver Center
07:17PM 42.4158 -101.7414 216° Southwest 404 465 32,000  Level Denver Center
07:18PM 42.3106 -101.8419 215° Southwest 409 471 32,000  Level Denver Center
07:19PM 42.2250 -101.9242 215° Southwest 406 467 32,000  Level Denver Center
07:20PM 42.1219 -102.0222 215° Southwest 406 467 32,000  Level Denver Center
07:21PM 42.0339 -102.1053 215° Southwest 406 467 32,000  Level Denver Center
07:22PM 41.9308 -102.2036 215° Southwest 406 467 32,000  Level Denver Center
07:23PM 41.8383 -102.2903 215° Southwest 408 470 32,000  Level Denver Center
07:24PM 41.7661 -102.3594 216° Southwest 402 463 32,000  Level Denver Center
07:25PM 41.6506 -102.4664 215° Southwest 408 470 32,000  Level Denver Center
07:26PM 41.5633 -102.5481 215° Southwest 403 464 32,000  Level Denver Center
07:27PM 41.4556 -102.6489 215° Southwest 406 467 32,000  Level Denver Center
07:28PM 41.3742 -102.7428 221° Southwest 404 465 32,000  Level Denver Center
07:29PM 41.2972 -102.8414 224° Southwest 401 461 32,000  Level Denver Center
07:30PM 41.1856 -102.9811 223° Southwest 401 461 32,000  Level Denver Center
07:31PM 41.1006 -103.0861 223° Southwest 408 470 32,000  Level Denver Center
07:32PM 41.0222 -103.1836 223° Southwest 405 466 32,000  Level Denver Center
07:33PM 40.9369 -103.2911 224° Southwest 407 468 32,000 -540 Level Denver Center
07:34PM 40.8539 -103.3953 224° Southwest 407 468 31,000 -1,800 Descending Denver Center
07:35PM 40.7728 -103.4953 223° Southwest 397 457 28,300 -2,340 Descending Denver Center
07:37PM 40.6919 -103.5936 223° Southwest 391 450 25,800 -2,580 Descending Denver Center
07:38PM 40.5831 -103.7267 223° Southwest 400 460 22,500 -2,880 Descending Denver Center
07:39PM 40.4983 -103.8306 223° Southwest 411 473 19,900 -2,160 Descending Denver Center
07:40PM 40.4147 -103.9325 223° Southwest 376 433 18,100 -1,260 Descending Denver Center
07:41PM 40.3436 -104.0050 218° Southwest 319 367 17,400 -1,200 Descending Denver Center
07:42PM 40.2656 -104.0725 213° Southwest 312 359 15,700 -1,500 Descending Denver Center
07:43PM 40.2319 -104.1600 243° Southwest 281 323 14,300 -1,380 Descending Denver Center
07:44PM 40.2392 -104.2594 275° West 256 295 12,900 -1,500 Descending Denver Center
07:45PM 40.2250 -104.3497 258° West 254 292 11,200 -1,440 Descending Denver Center
07:46PM 40.1983 -104.4417 249° West 255 293 10,000 -1,020 Descending Denver Center
07:47PM 40.1431 -104.5014 220° Southwest 259 298 9,200 -840 Descending Denver Center
07:47PM 40.1167 -104.5333 223° Southwest 255 293 8,700 -840 Descending Denver TRACON
07:48PM 40.0667 -104.6000 226° Southwest 245 282 7,900 -840 Descending Denver TRACON